createdAt,value
2018-07-01T00:01:51.517Z,18.90
2018-07-01T00:04:18.401Z,18.70
2018-07-01T00:06:45.328Z,18.80
2018-07-01T00:09:12.209Z,18.70
2018-07-01T00:11:39.136Z,18.60
2018-07-01T00:14:06.021Z,18.60
2018-07-01T00:16:33.008Z,18.70
2018-07-01T00:18:59.872Z,18.60
2018-07-01T00:21:26.789Z,18.60
2018-07-01T00:23:54.404Z,18.50
2018-07-01T00:26:21.397Z,18.50
2018-07-01T00:28:48.989Z,18.60
2018-07-01T00:31:15.949Z,18.60
2018-07-01T00:33:42.881Z,18.60
2018-07-01T00:36:09.832Z,18.50
2018-07-01T00:38:36.699Z,18.50
2018-07-01T00:41:03.613Z,18.50
2018-07-01T00:43:30.472Z,18.50
2018-07-01T00:45:57.389Z,18.30
2018-07-01T00:48:25.041Z,18.40
2018-07-01T00:50:52.016Z,18.30
2018-07-01T00:53:18.881Z,18.40
2018-07-01T00:55:45.842Z,18.40
2018-07-01T00:58:12.708Z,18.40
2018-07-01T01:00:39.690Z,18.30
2018-07-01T01:03:07.293Z,18.20
2018-07-01T01:05:34.205Z,18.20
2018-07-01T01:08:01.824Z,18.20
2018-07-01T01:10:28.837Z,18.10
2018-07-01T01:12:55.749Z,18.20
2018-07-01T01:15:23.464Z,18.10
2018-07-01T01:17:50.328Z,18.10
2018-07-01T01:20:17.285Z,18.10
2018-07-01T01:22:44.143Z,18.00
2018-07-01T01:25:11.132Z,18.00
2018-07-01T01:27:38.023Z,17.90
2018-07-01T01:30:05.696Z,17.80
2018-07-01T01:32:33.417Z,17.80
2018-07-01T01:35:00.344Z,17.80
2018-07-01T01:37:27.353Z,17.70
2018-07-01T01:40:07.544Z,17.70
2018-07-01T01:42:52.781Z,17.70
2018-07-01T01:45:35.036Z,17.70
2018-07-01T01:48:14.894Z,17.80
2018-07-01T01:50:58.264Z,17.70
2018-07-01T01:56:26.498Z,17.60
2018-07-01T01:59:08.108Z,17.50
2018-07-01T02:01:53.265Z,17.50
2018-07-01T02:04:35.335Z,17.50
2018-07-01T02:07:19.733Z,17.40
2018-07-01T02:10:02.241Z,17.40
2018-07-01T02:12:42.209Z,17.40
2018-07-01T02:15:22.335Z,17.40
2018-07-01T02:18:06.878Z,17.70
2018-07-01T02:20:49.089Z,17.70
2018-07-01T02:23:30.607Z,17.70
2018-07-01T02:26:11.934Z,17.80
2018-07-01T02:28:53.511Z,17.80
2018-07-01T02:31:38.721Z,17.90
2018-07-01T02:34:18.685Z,17.80
2018-07-01T02:36:59.938Z,17.80
2018-07-01T02:39:40.846Z,17.80
2018-07-01T02:42:22.859Z,17.70
2018-07-01T02:45:02.421Z,17.50
2018-07-01T02:47:41.204Z,17.40
2018-07-01T02:50:24.007Z,17.20
2018-07-01T02:53:06.546Z,17.20
2018-07-01T02:55:45.856Z,17.10
2018-07-01T02:58:25.972Z,17.10
2018-07-01T03:01:05.989Z,17.00
2018-07-01T03:03:47.729Z,17.00
2018-07-01T03:06:28.076Z,17.00
2018-07-01T03:09:07.251Z,17.00
2018-07-01T03:11:50.791Z,17.00
2018-07-01T03:14:31.726Z,16.90
2018-07-01T03:17:13.681Z,16.70
2018-07-01T03:19:53.400Z,16.90
2018-07-01T03:22:35.833Z,16.90
2018-07-01T03:25:15.687Z,16.90
2018-07-01T03:27:56.619Z,16.90
2018-07-01T03:30:36.755Z,17.00
2018-07-01T03:33:19.664Z,16.90
2018-07-01T03:36:01.161Z,16.90
2018-07-01T03:38:41.743Z,16.70
2018-07-01T03:41:21.324Z,16.70
2018-07-01T03:44:01.692Z,16.70
2018-07-01T03:46:42.031Z,16.80
2018-07-01T03:49:27.713Z,16.70
2018-07-01T03:52:08.422Z,16.70
2018-07-01T03:54:51.228Z,16.90
2018-07-01T03:57:31.751Z,16.70
2018-07-01T04:00:11.812Z,16.70
2018-07-01T04:02:51.838Z,16.70
2018-07-01T04:08:17.391Z,16.70
2018-07-01T04:10:55.564Z,16.70
2018-07-01T04:13:38.492Z,16.70
2018-07-01T04:16:18.536Z,16.70
2018-07-01T04:19:02.741Z,16.80
2018-07-01T04:21:42.197Z,16.90
2018-07-01T04:24:25.284Z,16.90
2018-07-01T04:29:52.476Z,17.00
2018-07-01T04:32:24.691Z,17.00
2018-07-01T04:35:05.381Z,17.10
2018-07-01T04:37:47.721Z,18.80
2018-07-01T04:40:29.628Z,18.80
2018-07-01T04:43:07.825Z,19.40
2018-07-01T04:45:48.187Z,20.80
2018-07-01T04:49:45.186Z,21.00
2018-07-01T04:52:26.303Z,20.60
2018-07-01T04:55:09.994Z,20.60
2018-07-01T04:57:48.558Z,21.70
2018-07-01T05:00:30.607Z,22.20
2018-07-01T05:03:10.916Z,22.50
2018-07-01T05:05:51.687Z,22.40
2018-07-01T05:08:31.101Z,22.00
2018-07-01T05:11:13.402Z,25.90
2018-07-01T05:16:36.964Z,30.00
2018-07-01T05:19:18.231Z,27.60
2018-07-01T05:21:58.311Z,27.40
2018-07-01T05:24:34.033Z,29.50
2018-07-01T05:27:13.344Z,32.30
2018-07-01T05:29:52.960Z,32.20
2018-07-01T05:32:36.591Z,32.40
2018-07-01T05:35:20.533Z,31.60
2018-07-01T05:38:02.125Z,26.10
2018-07-01T05:40:43.832Z,26.00
2018-07-01T05:46:02.647Z,22.80
2018-07-01T05:48:42.374Z,21.40
2018-07-01T05:51:24.784Z,21.40
2018-07-01T05:54:04.569Z,21.10
2018-07-01T05:56:44.637Z,21.00
2018-07-01T06:02:11.078Z,20.00
2018-07-01T06:04:53.456Z,20.00
2018-07-01T06:07:33.689Z,19.90
2018-07-01T06:10:15.769Z,20.30
2018-07-01T06:12:52.475Z,20.50
2018-07-01T06:15:34.175Z,20.50
2018-07-01T06:18:15.749Z,20.40
2018-07-01T06:20:58.527Z,19.80
2018-07-01T06:23:40.012Z,19.80
2018-07-01T06:26:22.226Z,19.80
2018-07-01T06:29:03.063Z,19.90
2018-07-01T06:31:43.884Z,20.00
2018-07-01T06:37:07.878Z,19.50
2018-07-01T06:39:49.226Z,20.30
2018-07-01T06:42:32.378Z,20.40
2018-07-01T06:45:13.643Z,20.20
2018-07-01T06:47:54.512Z,20.20
2018-07-01T06:50:37.549Z,20.30
2018-07-01T06:53:19.748Z,20.30
2018-07-01T06:56:01.551Z,20.20
2018-07-01T06:58:42.465Z,20.30
2018-07-01T07:01:24.870Z,20.60
2018-07-01T07:06:50.227Z,20.50
2018-07-01T07:09:30.631Z,20.60
2018-07-01T07:12:09.500Z,20.40
2018-07-01T07:14:49.177Z,20.30
2018-07-01T07:17:30.616Z,20.40
2018-07-01T07:20:10.355Z,20.40
2018-07-01T07:22:51.923Z,20.60
2018-07-01T07:25:34.681Z,21.00
2018-07-01T07:28:15.334Z,21.00
2018-07-01T07:30:57.310Z,21.10
2018-07-01T07:33:39.547Z,21.40
2018-07-01T07:36:22.712Z,21.40
2018-07-01T07:39:03.125Z,21.70
2018-07-01T07:41:44.986Z,21.90
2018-07-01T07:47:10.415Z,22.10
2018-07-01T07:49:52.084Z,22.00
2018-07-01T07:52:35.149Z,22.80
2018-07-01T07:55:15.178Z,22.10
2018-07-01T07:57:55.838Z,22.60
2018-07-01T08:00:35.435Z,23.00
2018-07-01T08:03:14.649Z,22.50
2018-07-01T08:08:36.459Z,25.30
2018-07-01T08:11:16.711Z,25.50
2018-07-01T08:13:57.038Z,24.90
2018-07-01T08:16:41.422Z,24.90
2018-07-01T08:22:04.209Z,23.10
2018-07-01T08:27:28.784Z,24.70
2018-07-01T08:30:08.670Z,25.70
2018-07-01T08:32:48.997Z,26.00
2018-07-01T08:38:11.957Z,26.80
2018-07-01T08:43:31.064Z,27.60
2018-07-01T08:46:10.057Z,28.80
2018-07-01T08:48:50.792Z,29.40
2018-07-01T08:51:29.413Z,31.80
2018-07-01T08:54:08.333Z,32.90
2018-07-01T08:56:48.780Z,30.10
2018-07-01T08:59:31.192Z,30.40
2018-07-01T09:02:12.488Z,31.90
2018-07-01T09:04:52.483Z,31.90
2018-07-01T09:07:30.485Z,31.80
2018-07-01T09:10:09.718Z,30.10
2018-07-01T09:12:52.494Z,28.60
2018-07-01T09:15:33.210Z,28.50
2018-07-01T09:18:12.247Z,28.10
2018-07-01T09:20:53.657Z,28.10
2018-07-01T09:26:17.368Z,27.80
2018-07-01T09:28:59.017Z,27.80
2018-07-01T09:31:39.797Z,27.30
2018-07-01T09:34:22.781Z,27.30
2018-07-01T09:37:04.095Z,26.80
2018-07-01T09:39:41.926Z,27.20
2018-07-01T09:42:22.129Z,25.90
2018-07-01T09:44:59.812Z,27.30
2018-07-01T09:47:41.851Z,28.60
2018-07-01T09:50:23.613Z,28.60
2018-07-01T09:53:04.571Z,28.90
2018-07-01T09:55:44.625Z,28.90
2018-07-01T09:58:28.783Z,28.70
2018-07-01T10:01:08.365Z,28.70
2018-07-01T10:03:50.327Z,28.90
2018-07-01T10:06:30.809Z,28.00
2018-07-01T10:09:13.666Z,28.30
2018-07-01T10:11:53.016Z,28.30
2018-07-01T10:14:34.444Z,28.50
2018-07-01T10:17:15.802Z,27.90
2018-07-01T10:19:59.540Z,27.00
2018-07-01T10:22:40.534Z,27.20
2018-07-01T10:25:21.627Z,28.10
2018-07-01T10:28:01.366Z,29.30
2018-07-01T10:30:39.441Z,27.00
2018-07-01T10:33:18.957Z,27.00
2018-07-01T10:35:57.834Z,27.50
2018-07-01T10:38:37.460Z,27.50
2018-07-01T10:41:16.978Z,27.70
2018-07-01T10:43:57.879Z,27.60
2018-07-01T10:49:21.167Z,28.50
2018-07-01T10:52:00.041Z,27.30
2018-07-01T10:54:41.328Z,27.30
2018-07-01T10:57:22.625Z,27.50
2018-07-01T11:00:05.444Z,27.40
2018-07-01T11:02:45.010Z,27.70
2018-07-01T11:05:26.906Z,28.10
2018-07-01T11:08:07.883Z,28.50
2018-07-01T11:10:54.813Z,28.10
2018-07-01T11:16:19.357Z,27.20
2018-07-01T11:21:48.252Z,27.70
2018-07-01T11:24:30.417Z,28.10
2018-07-01T11:27:06.730Z,27.90
2018-07-01T11:29:48.641Z,28.50
2018-07-01T11:32:27.043Z,27.90
2018-07-01T11:35:08.303Z,28.10
2018-07-01T11:37:47.979Z,28.30
2018-07-01T11:40:28.013Z,28.20
2018-07-01T11:43:07.441Z,28.10
2018-07-01T11:45:44.325Z,28.40
2018-07-01T11:48:24.052Z,29.10
2018-07-01T11:51:04.585Z,29.00
2018-07-01T11:56:23.361Z,28.00
2018-07-01T11:59:04.392Z,28.10
2018-07-01T12:01:40.694Z,28.10
2018-07-01T12:04:19.840Z,27.90
2018-07-01T12:06:58.129Z,27.80
2018-07-01T12:12:21.864Z,27.60
2018-07-01T12:15:01.951Z,27.40
2018-07-01T12:20:26.108Z,28.30
2018-07-01T12:23:06.103Z,27.90
2018-07-01T12:25:43.028Z,27.80
2018-07-01T12:28:20.485Z,27.30
2018-07-01T12:30:58.676Z,27.20
2018-07-01T12:33:37.679Z,27.30
2018-07-01T12:36:19.058Z,26.90
2018-07-01T12:39:00.354Z,27.00
2018-07-01T12:41:41.804Z,27.40
2018-07-01T12:44:24.279Z,27.70
2018-07-01T12:47:01.294Z,27.60
2018-07-01T12:49:40.075Z,28.20
2018-07-01T12:52:19.814Z,27.30
2018-07-01T12:54:47.484Z,27.00
2018-07-01T12:57:15.184Z,27.20
2018-07-01T12:59:43.907Z,27.20
2018-07-01T13:02:10.846Z,27.80
2018-07-01T13:04:37.729Z,27.60
2018-07-01T13:07:04.714Z,27.40
2018-07-01T13:12:24.209Z,28.40
2018-07-01T13:15:04.489Z,27.90
2018-07-01T13:17:45.168Z,27.20
2018-07-01T13:20:26.711Z,27.30
2018-07-01T13:22:55.617Z,27.50
2018-07-01T13:25:22.588Z,27.60
2018-07-01T13:27:49.481Z,27.70
2018-07-01T13:30:17.165Z,27.10
2018-07-01T13:32:44.044Z,27.10
2018-07-01T13:35:25.751Z,27.10
2018-07-01T13:38:11.043Z,27.80
2018-07-01T13:40:38.948Z,27.80
2018-07-01T13:43:05.833Z,27.40
2018-07-01T13:45:32.825Z,27.70
2018-07-01T13:47:59.715Z,27.30
2018-07-01T13:50:26.692Z,27.60
2018-07-01T13:52:54.347Z,27.70
2018-07-01T13:55:21.257Z,27.60
2018-07-01T13:57:48.234Z,27.60
2018-07-01T14:00:15.209Z,27.80
2018-07-01T14:02:42.180Z,27.80
2018-07-01T14:05:09.156Z,27.80
2018-07-01T14:07:36.155Z,27.90
2018-07-01T14:10:03.854Z,28.30
2018-07-01T14:12:30.829Z,28.30
2018-07-01T14:14:57.767Z,27.80
2018-07-01T14:17:25.137Z,27.50
2018-07-01T14:19:52.168Z,27.60
2018-07-01T14:22:20.132Z,28.00
2018-07-01T14:24:49.509Z,27.60
2018-07-01T14:27:27.455Z,27.60
2018-07-01T14:29:55.734Z,28.00
2018-07-01T14:32:36.144Z,28.00
2018-07-01T14:35:18.519Z,27.90
2018-07-01T14:38:00.295Z,27.40
2018-07-01T14:40:27.990Z,27.90
2018-07-01T14:42:55.660Z,28.10
2018-07-01T14:45:23.260Z,28.20
2018-07-01T14:47:50.206Z,28.20
2018-07-01T14:50:32.029Z,28.10
2018-07-01T14:53:15.377Z,27.50
2018-07-01T14:55:57.793Z,27.20
2018-07-01T14:58:40.841Z,27.60
2018-07-01T15:01:22.852Z,27.80
2018-07-01T15:04:03.698Z,28.00
2018-07-01T15:06:32.822Z,28.40
2018-07-01T15:08:59.744Z,28.30
2018-07-01T15:11:27.441Z,28.30
2018-07-01T15:13:54.356Z,28.30
2018-07-01T15:16:35.184Z,28.30
2018-07-01T15:19:17.707Z,28.00
2018-07-01T15:21:59.307Z,27.90
2018-07-01T15:24:40.154Z,27.80
2018-07-01T15:27:07.874Z,27.80
2018-07-01T15:29:34.780Z,27.70
2018-07-01T15:32:01.729Z,27.70
2018-07-01T15:34:28.599Z,27.30
2018-07-01T15:36:56.273Z,27.30
2018-07-01T15:39:36.349Z,27.30
2018-07-01T15:42:19.064Z,27.20
2018-07-01T15:45:00.187Z,27.10
2018-07-01T15:47:39.129Z,27.10
2018-07-01T15:53:04.072Z,27.40
2018-07-01T15:55:44.101Z,27.40
2018-07-01T15:58:16.340Z,27.60
2018-07-01T16:00:43.520Z,28.00
2018-07-01T16:03:11.326Z,27.40
2018-07-01T16:05:41.656Z,27.40
2018-07-01T16:08:10.269Z,27.40
2018-07-01T16:10:45.409Z,27.50
2018-07-01T16:13:18.912Z,27.40
2018-07-01T16:15:48.387Z,27.50
2018-07-01T16:18:15.633Z,27.20
2018-07-01T16:20:42.549Z,27.40
2018-07-01T16:23:10.218Z,27.30
2018-07-01T16:25:37.114Z,27.30
2018-07-01T16:28:04.237Z,27.30
2018-07-01T16:30:44.223Z,27.50
2018-07-01T16:33:11.538Z,27.40
2018-07-01T16:35:38.478Z,27.20
2018-07-01T16:38:05.499Z,27.40
2018-07-01T16:40:38.822Z,27.40
2018-07-01T16:43:06.562Z,27.30
2018-07-01T16:45:40.859Z,27.30
2018-07-01T16:48:08.213Z,27.30
2018-07-01T16:50:35.088Z,27.30
2018-07-01T16:53:03.500Z,27.30
2018-07-01T16:55:37.509Z,27.50
2018-07-01T16:58:04.661Z,27.40
2018-07-01T17:00:31.720Z,27.20
2018-07-01T17:02:59.602Z,27.00
2018-07-01T17:05:26.731Z,27.20
2018-07-01T17:08:04.766Z,27.10
2018-07-01T17:10:31.640Z,27.10
2018-07-01T17:12:59.326Z,26.70
2018-07-01T17:15:38.478Z,26.70
2018-07-01T17:18:16.662Z,26.70
2018-07-01T17:23:42.746Z,26.90
2018-07-01T17:26:21.251Z,26.80
2018-07-01T17:29:05.218Z,26.80
2018-07-01T17:31:51.458Z,26.80
2018-07-01T17:34:31.892Z,26.70
2018-07-01T17:37:12.694Z,26.70
2018-07-01T17:39:54.275Z,26.40
2018-07-01T17:42:34.403Z,26.60
2018-07-01T17:45:18.937Z,26.40
2018-07-01T17:48:00.057Z,26.40
2018-07-01T17:50:41.417Z,26.20
2018-07-01T17:53:23.935Z,26.20
2018-07-01T17:56:03.247Z,26.10
2018-07-01T17:58:44.486Z,26.20
2018-07-01T18:01:24.545Z,26.10
2018-07-01T18:04:06.350Z,25.90
2018-07-01T18:09:28.361Z,26.00
2018-07-01T18:12:07.830Z,25.90
2018-07-01T18:14:50.666Z,25.90
2018-07-01T18:17:28.238Z,25.80
2018-07-01T18:23:18.236Z,25.70
2018-07-01T18:25:36.844Z,25.50
2018-07-01T18:28:30.185Z,25.30
2018-07-01T18:31:00.466Z,25.30
2018-07-01T18:33:38.774Z,25.40
2018-07-01T18:36:20.193Z,25.30
2018-07-01T18:39:00.602Z,25.40
2018-07-01T18:41:41.703Z,25.40
2018-07-01T18:44:23.561Z,25.00
2018-07-01T18:47:03.640Z,25.10
2018-07-01T18:49:44.757Z,25.10
2018-07-01T18:52:25.773Z,25.00
2018-07-01T18:55:04.442Z,24.90
2018-07-01T18:57:44.313Z,25.00
2018-07-01T19:00:28.231Z,24.80
2018-07-01T19:03:10.905Z,24.70
2018-07-01T19:05:53.163Z,24.60
2018-07-01T19:08:34.068Z,24.40
2018-07-01T19:11:16.584Z,24.20
2018-07-01T19:16:44.094Z,24.20
2018-07-01T19:19:25.735Z,24.20
2018-07-01T19:21:53.632Z,24.20
2018-07-01T19:24:20.517Z,24.10
2018-07-01T19:26:48.197Z,24.00
2018-07-01T19:29:15.266Z,23.90
2018-07-01T19:31:42.219Z,23.80
2018-07-01T19:34:20.909Z,23.80
2018-07-01T19:36:47.901Z,23.70
2018-07-01T19:39:14.793Z,23.70
2018-07-01T19:41:42.457Z,23.60
2018-07-01T19:44:12.527Z,23.40
2018-07-01T19:46:54.420Z,23.40
2018-07-01T19:49:35.511Z,23.40
2018-07-01T19:52:04.824Z,23.30
2018-07-01T19:54:31.729Z,23.30
2018-07-01T19:56:58.755Z,23.10
2018-07-01T19:59:27.054Z,23.10
2018-07-01T20:01:54.057Z,23.00
2018-07-01T20:04:20.993Z,22.90
2018-07-01T20:06:47.938Z,22.90
2018-07-01T20:09:14.812Z,22.80
2018-07-01T20:11:42.556Z,22.60
2018-07-01T20:14:16.177Z,22.60
2018-07-01T20:16:48.931Z,22.50
2018-07-01T20:19:29.848Z,22.50
2018-07-01T20:22:12.469Z,22.50
2018-07-01T20:24:40.369Z,22.40
2018-07-01T20:27:07.327Z,22.40
2018-07-01T20:29:34.205Z,22.30
2018-07-01T20:32:01.137Z,22.30
2018-07-01T20:34:28.016Z,22.30
2018-07-01T20:36:59.162Z,22.20
2018-07-01T20:42:24.058Z,22.10
2018-07-01T20:45:07.242Z,22.10
2018-07-01T20:53:05.171Z,22.00
2018-07-01T20:55:32.061Z,21.90
2018-07-01T20:57:59.724Z,21.80
2018-07-01T21:00:31.857Z,21.70
2018-07-01T21:02:59.372Z,21.70
2018-07-01T21:05:37.365Z,21.60
2018-07-01T21:08:05.906Z,21.50
2018-07-01T21:10:38.143Z,21.30
2018-07-01T21:13:06.052Z,21.30
2018-07-01T21:15:42.918Z,21.20
2018-07-01T21:18:10.489Z,21.20
2018-07-01T21:20:38.931Z,21.00
2018-07-01T21:23:13.014Z,20.90
2018-07-01T21:25:51.937Z,20.60
2018-07-01T21:28:35.012Z,20.50
2018-07-01T21:31:16.894Z,20.50
2018-07-01T21:33:57.565Z,20.40
2018-07-01T21:39:26.399Z,20.20
2018-07-01T21:42:07.256Z,20.10
2018-07-01T21:44:37.001Z,20.10
2018-07-01T21:47:05.336Z,20.00
2018-07-01T21:49:32.246Z,20.00
2018-07-01T21:52:15.627Z,20.00
2018-07-01T22:00:25.150Z,19.90
2018-07-01T22:03:04.696Z,19.90
2018-07-01T22:05:46.581Z,19.90
2018-07-01T22:08:28.637Z,19.90
2018-07-01T22:10:57.028Z,19.80
2018-07-01T22:13:27.523Z,19.70
2018-07-01T22:16:14.013Z,19.70
2018-07-01T22:18:53.940Z,19.60
2018-07-01T22:21:35.824Z,19.50
2018-07-01T22:24:17.387Z,19.50
2018-07-01T22:27:00.663Z,19.50
2018-07-01T22:32:13.782Z,19.40
2018-07-01T22:34:40.656Z,19.30
2018-07-01T22:37:07.627Z,19.30
2018-07-01T22:39:47.692Z,19.30
2018-07-01T22:42:29.585Z,19.20
2018-07-01T22:44:57.368Z,19.10
2018-07-01T22:47:24.340Z,19.10
2018-07-01T22:49:51.238Z,19.10
2018-07-01T22:52:26.305Z,18.90
2018-07-01T22:54:53.204Z,18.80
2018-07-01T22:57:20.204Z,18.90
2018-07-01T22:59:47.105Z,18.80
2018-07-01T23:02:46.373Z,18.70
2018-07-01T23:05:27.966Z,18.70
2018-07-01T23:08:09.724Z,18.60
2018-07-01T23:10:50.140Z,18.70
2018-07-01T23:13:17.942Z,18.60
2018-07-01T23:15:44.854Z,18.50
2018-07-01T23:18:12.558Z,18.30
2018-07-01T23:20:39.504Z,18.30
2018-07-01T23:23:06.480Z,18.30
2018-07-01T23:25:34.168Z,18.10
2018-07-01T23:28:01.894Z,18.10
2018-07-01T23:30:28.766Z,18.20
2018-07-01T23:32:55.665Z,18.00
2018-07-01T23:35:22.625Z,18.10
2018-07-01T23:37:49.515Z,18.10
2018-07-01T23:40:16.508Z,18.00
2018-07-01T23:42:43.404Z,18.00
2018-07-01T23:45:10.408Z,18.00
2018-07-01T23:47:37.308Z,17.90
2018-07-01T23:50:05.062Z,17.90
2018-07-01T23:52:31.981Z,17.90
2018-07-01T23:54:58.944Z,17.90
2018-07-01T23:57:25.831Z,17.90
2018-07-01T23:59:52.797Z,17.80
